Colby, KS

10:48 PM CST on November 13, 2019 (GMT -0600)
Shaltz

Weather History for KCBK - September, 2019

Change the Weather History Date:

Wednesday, September 18, 2019

  Actual Average (KGLD) Record (KGLD)
Temperature  
Mean Temperature 68 °F -  
Max Temperature 80 °F 79 °F 99 °F (1895)
Min Temperature 55 °F 50 °F 34 °F (1971)
Cooling Degree Days 2    
Growing Degree Days 18 (Base 50)    
Moisture  
Dew Point 50 °F    
Average Humidity 53    
Maximum Humidity 94    
Minimum Humidity 25    
Precipitation  
Precipitation 0.00 in - - ()
Sea Level Pressure  
Sea Level Pressure 29.97 in    
Wind  
Wind Speed 12 mph (NE)    
Max Wind Speed 22 mph    
Max Gust Speed 28 mph    
Visibility 10 miles    
Events      
Averages and records for this station are not official NWS values.
T = Trace of Precipitation, MM = Missing Value Source: NWS Daily Summary

Daily Weather History Graph

Daily Weather History Graph

Search for Another Location

Airport or City:

Astronomy

Sep. 18, 2019 Rise Set
Actual Time 7:28 AM CDT 7:48 PM CDT
Civil Twilight 7:01 AM CDT 8:14 PM CDT
Nautical Twilight 6:29 AM CDT 8:46 PM CDT
Astronomical Twilight 5:57 AM CDT 9:18 PM CDT
Moon 10:24 PM CDT (9/18) 11:32 AM CDT (9/18)
Length of Visible Light 13h 13m
Length of Day
12h 20m
Waning Gibbous, 82% of the Moon is Illuminated
Sep 18
Waning Gibbous
Sep 21
Last Quarter
Sep 28
New
Oct 5
First Quarter
Oct 13
Full

Hourly Weather History & Observations

Time (CDT) Temp. Heat Index Dew Point Humidity Pressure Visibility Wind Dir Wind Speed Gust Speed Precip Events Conditions
12:15 AM 73.4 °F - 53.6 °F 50% 29.89 in 10.0 mi South 16.1 mph 23.0 mph N/A   Clear
12:35 AM 73.4 °F - 53.6 °F 50% 29.89 in 10.0 mi SSE 16.1 mph 21.9 mph N/A   Clear
12:55 AM 73.4 °F - 53.6 °F 50% 29.89 in 10.0 mi South 16.1 mph 19.6 mph N/A   Clear
1:35 AM 71.6 °F - 53.6 °F 53% 29.89 in 10.0 mi South 16.1 mph 23.0 mph N/A   Clear
1:55 AM 71.6 °F - 55.4 °F 57% 29.89 in 10.0 mi South 17.3 mph 23.0 mph N/A   Clear
2:15 AM 71.6 °F - 55.4 °F 57% 29.89 in 10.0 mi South 16.1 mph 21.9 mph N/A   Clear
2:35 AM 71.6 °F - 55.4 °F 57% 29.89 in 10.0 mi South 16.1 mph - N/A   Clear
2:55 AM 71.6 °F - 55.4 °F 57% 29.89 in 10.0 mi South 13.8 mph 17.3 mph N/A   Clear
3:15 AM 69.8 °F - 55.4 °F 60% 29.89 in 10.0 mi South 11.5 mph 18.4 mph N/A   Clear
3:35 AM 69.8 °F - 55.4 °F 60% 29.89 in 10.0 mi South 11.5 mph 17.3 mph N/A   Clear
3:55 AM 69.8 °F - 55.4 °F 60% 29.89 in 10.0 mi SSW 11.5 mph 17.3 mph N/A   Clear
4:15 AM 68.0 °F - 55.4 °F 64% 29.89 in 10.0 mi SSW 9.2 mph - N/A   Clear
4:55 AM 64.4 °F - 53.6 °F 68% 29.90 in 10.0 mi SSW 4.6 mph - N/A   Clear
5:15 AM 60.8 °F - 53.6 °F 77% 29.91 in 10.0 mi WNW 5.8 mph - N/A   Clear
5:35 AM 59.0 °F - 53.6 °F 82% 29.91 in 10.0 mi WNW 6.9 mph - N/A   Clear
6:15 AM 57.2 °F - 55.4 °F 94% 29.92 in 10.0 mi NNW 5.8 mph - N/A   Clear
6:35 AM 59.0 °F - 53.6 °F 82% 29.92 in 10.0 mi North 5.8 mph - N/A   Clear
6:55 AM 55.4 °F - 53.6 °F 94% 29.93 in 10.0 mi NW 9.2 mph - N/A   Clear
7:15 AM 57.2 °F - 53.6 °F 88% 29.94 in 10.0 mi North 12.7 mph - N/A   Clear
7:35 AM 59.0 °F - 53.6 °F 82% 29.95 in 10.0 mi North 15.0 mph - N/A   Clear
7:55 AM 59.0 °F - 50.0 °F 72% 29.97 in 10.0 mi North 13.8 mph - N/A   Clear
8:15 AM 60.8 °F - 46.4 °F 59% 29.97 in 10.0 mi North 15.0 mph - N/A   Clear
8:35 AM 60.8 °F - 44.6 °F 55% 29.98 in 10.0 mi North 13.8 mph 23.0 mph N/A   Clear
8:55 AM 62.6 °F - 42.8 °F 48% 30.00 in 10.0 mi North 15.0 mph 21.9 mph N/A   Clear
9:15 AM 64.4 °F - 41.0 °F 42% 30.00 in 10.0 mi North 15.0 mph 20.7 mph N/A   Clear
9:35 AM 64.4 °F - 37.4 °F 37% 30.01 in 10.0 mi North 18.4 mph 25.3 mph N/A   Clear
9:55 AM 68.0 °F - 35.6 °F 30% 30.01 in 10.0 mi North 21.9 mph 26.5 mph N/A   Clear
10:15 AM 69.8 °F - 35.6 °F 28% 30.02 in 10.0 mi North 18.4 mph 23.0 mph N/A   Clear
10:35 AM 71.6 °F - 35.6 °F 27% 30.02 in 10.0 mi North 18.4 mph 25.3 mph N/A   Clear
10:55 AM 71.6 °F - 35.6 °F 27% 30.02 in 10.0 mi North 21.9 mph 27.6 mph N/A   Clear
11:15 AM 73.4 °F - 35.6 °F 25% 30.02 in 10.0 mi NNE 17.3 mph 25.3 mph N/A   Clear
11:55 AM 75.2 °F - 37.4 °F 25% 30.03 in 10.0 mi NNE 13.8 mph 23.0 mph N/A   Clear
12:15 PM 77.0 °F - 41.0 °F 28% 30.03 in 10.0 mi NNE 17.3 mph 20.7 mph N/A   Clear
12:35 PM 77.0 °F - 41.0 °F 28% 30.03 in 10.0 mi NNE 16.1 mph 24.2 mph N/A   Clear
12:55 PM 78.8 °F - 42.8 °F 28% 30.03 in 10.0 mi NNE 17.3 mph - N/A   Clear
1:15 PM 78.8 °F - 42.8 °F 28% 30.02 in 10.0 mi NNE 15.0 mph - N/A   Clear
1:35 PM 78.8 °F - 42.8 °F 28% 30.02 in 10.0 mi NE 15.0 mph 19.6 mph N/A   Clear
1:55 PM 78.8 °F - 42.8 °F 28% 30.02 in 10.0 mi NE 10.4 mph 17.3 mph N/A   Clear
2:15 PM 80.6 °F - 44.6 °F 28% 30.02 in 10.0 mi NE 10.4 mph 19.6 mph N/A   Clear
2:35 PM 80.6 °F - 46.4 °F 30% 30.02 in 10.0 mi NE 12.7 mph 17.3 mph N/A   Clear
2:55 PM 80.6 °F - 46.4 °F 30% 30.02 in 7.0 mi NNE 9.2 mph - N/A   Clear
3:15 PM 80.6 °F - 48.2 °F 32% 30.01 in 10.0 mi NE 6.9 mph - N/A   Clear
3:35 PM 80.6 °F - 48.2 °F 32% 30.01 in 10.0 mi NNE 9.2 mph - N/A   Clear
3:55 PM 80.6 °F - 46.4 °F 30% 30.01 in 10.0 mi ENE 6.9 mph - N/A   Clear
4:15 PM 80.6 °F - 48.2 °F 32% 30.00 in 10.0 mi NE 9.2 mph - N/A   Clear
4:35 PM 80.6 °F - 50.0 °F 34% 30.00 in 10.0 mi NE 8.1 mph - N/A   Clear
4:55 PM 80.6 °F - 50.0 °F 34% 29.99 in 5.0 mi NE 9.2 mph - N/A   Clear
5:15 PM 80.6 °F - 51.8 °F 37% 29.99 in 3.0 mi ENE 8.1 mph - N/A   Clear
5:35 PM 80.6 °F 80.3 °F 53.6 °F 39% 29.99 in 10.0 mi East 6.9 mph - N/A   Clear
5:55 PM 78.8 °F - 53.6 °F 42% 29.99 in 10.0 mi ENE 8.1 mph - N/A   Clear
6:15 PM 78.8 °F - 53.6 °F 42% 29.98 in 10.0 mi NE 5.8 mph - N/A   Clear
6:35 PM 78.8 °F - 55.4 °F 44% 29.98 in 10.0 mi East 6.9 mph - N/A   Clear
6:55 PM 77.0 °F - 55.4 °F 47% 29.98 in 10.0 mi ENE 3.5 mph - N/A   Clear
7:15 PM 75.2 °F - 57.2 °F 53% 29.98 in 7.0 mi NNE 3.5 mph - N/A   Clear
7:35 PM 73.4 °F - 59.0 °F 61% 29.98 in 10.0 mi NE 4.6 mph - N/A   Clear
7:55 PM 69.8 °F - 57.2 °F 64% 29.98 in 10.0 mi NE 4.6 mph - N/A   Clear
8:15 PM 68.0 °F - 57.2 °F 68% 29.99 in 10.0 mi NE 6.9 mph - N/A   Clear
8:35 PM 66.2 °F - 57.2 °F 73% 29.99 in 10.0 mi NE 5.8 mph - N/A   Clear
8:55 PM 64.4 °F - 57.2 °F 77% 29.99 in 10.0 mi NE 6.9 mph - N/A   Clear
9:15 PM 64.4 °F - 55.4 °F 73% 30.00 in 10.0 mi NE 6.9 mph - N/A   Clear
9:35 PM 62.6 °F - 55.4 °F 77% 30.01 in 7.0 mi NE 5.8 mph - N/A   Clear
9:55 PM 62.6 °F - 55.4 °F 77% 30.02 in 10.0 mi NE 6.9 mph - N/A   Clear
10:15 PM 64.4 °F - 55.4 °F 73% 30.02 in 10.0 mi NE 6.9 mph - N/A   Clear
10:35 PM 62.6 °F - 55.4 °F 77% 30.02 in 10.0 mi NE 6.9 mph - N/A   Clear
10:55 PM 62.6 °F - 55.4 °F 77% 30.02 in 10.0 mi NE 6.9 mph - N/A   Clear
11:15 PM 62.6 °F - 55.4 °F 77% 30.02 in 10.0 mi NE 5.8 mph - N/A   Clear
11:35 PM 60.8 °F - 55.4 °F 82% 30.01 in 10.0 mi NE 5.8 mph - N/A   Clear
11:55 PM 60.8 °F - 55.4 °F 82% 30.01 in 10.0 mi NE 5.8 mph - N/A   Clear